sensor_id;sensor_type;location;lat;lon;timestamp;pressure;altitude;pressure_sealevel;temperature
76394;BMP180;65216;51.090;-115.352;2023-11-25T00:01:00;87683.80;;;22.50
76394;BMP180;65216;51.090;-115.352;2023-11-25T00:03:27;87672.60;;;22.50
76394;BMP180;65216;51.090;-115.352;2023-11-25T00:05:55;87670.40;;;22.50
76394;BMP180;65216;51.090;-115.352;2023-11-25T00:08:22;87661.80;;;22.50
76394;BMP180;65216;51.090;-115.352;2023-11-25T00:10:49;87665.40;;;22.50
76394;BMP180;65216;51.090;-115.352;2023-11-25T00:13:19;87666.20;;;22.50
76394;BMP180;65216;51.090;-115.352;2023-11-25T00:15:46;87668.20;;;22.50
76394;BMP180;65216;51.090;-115.352;2023-11-25T00:18:13;87688.60;;;22.50
76394;BMP180;65216;51.090;-115.352;2023-11-25T00:20:40;87674.80;;;22.50
76394;BMP180;65216;51.090;-115.352;2023-11-25T00:23:09;87666.20;;;22.50
76394;BMP180;65216;51.090;-115.352;2023-11-25T00:25:40;87673.40;;;22.50
76394;BMP180;65216;51.090;-115.352;2023-11-25T00:28:07;87678.20;;;22.48
76394;BMP180;65216;51.090;-115.352;2023-11-25T00:30:39;87686.40;;;22.40
76394;BMP180;65216;51.090;-115.352;2023-11-25T00:33:06;87664.20;;;22.40
76394;BMP180;65216;51.090;-115.352;2023-11-25T00:35:35;87668.60;;;22.40
76394;BMP180;65216;51.090;-115.352;2023-11-25T00:38:03;87677.80;;;22.40
76394;BMP180;65216;51.090;-115.352;2023-11-25T00:40:35;87681.80;;;22.40
76394;BMP180;65216;51.090;-115.352;2023-11-25T00:43:02;87677.80;;;22.40
76394;BMP180;65216;51.090;-115.352;2023-11-25T00:45:29;87689.00;;;22.40
76394;BMP180;65216;51.090;-115.352;2023-11-25T00:47:58;87680.80;;;22.40
76394;BMP180;65216;51.090;-115.352;2023-11-25T00:50:30;87682.20;;;22.40
76394;BMP180;65216;51.090;-115.352;2023-11-25T00:52:57;87683.20;;;22.36
76394;BMP180;65216;51.090;-115.352;2023-11-25T00:55:24;87687.60;;;22.38
76394;BMP180;65216;51.090;-115.352;2023-11-25T00:57:50;87685.20;;;22.30
76394;BMP180;65216;51.090;-115.352;2023-11-25T01:00:20;87694.40;;;22.30
76394;BMP180;65216;51.090;-115.352;2023-11-25T01:02:51;87680.80;;;22.30
76394;BMP180;65216;51.090;-115.352;2023-11-25T01:05:18;87672.60;;;22.30
76394;BMP180;65216;51.090;-115.352;2023-11-25T01:07:48;87669.20;;;22.30
76394;BMP180;65216;51.090;-115.352;2023-11-25T01:10:15;87664.80;;;22.30
76394;BMP180;65216;51.090;-115.352;2023-11-25T01:12:42;87681.40;;;22.20
76394;BMP180;65216;51.090;-115.352;2023-11-25T01:15:09;87673.20;;;22.20
76394;BMP180;65216;51.090;-115.352;2023-11-25T01:17:41;87673.80;;;22.20
76394;BMP180;65216;51.090;-115.352;2023-11-25T01:20:09;87670.00;;;22.20
76394;BMP180;65216;51.090;-115.352;2023-11-25T01:22:36;87689.40;;;22.20
76394;BMP180;65216;51.090;-115.352;2023-11-25T01:25:05;87686.60;;;22.20
76394;BMP180;65216;51.090;-115.352;2023-11-25T01:27:33;87674.20;;;22.20
76394;BMP180;65216;51.090;-115.352;2023-11-25T01:30:02;87685.60;;;22.20
76394;BMP180;65216;51.090;-115.352;2023-11-25T01:32:32;87690.00;;;22.16
76394;BMP180;65216;51.090;-115.352;2023-11-25T01:34:59;87683.80;;;22.18
76394;BMP180;65216;51.090;-115.352;2023-11-25T01:37:26;87690.60;;;22.18
76394;BMP180;65216;51.090;-115.352;2023-11-25T01:39:55;87694.20;;;22.14
76394;BMP180;65216;51.090;-115.352;2023-11-25T01:42:22;87681.00;;;22.10
76394;BMP180;65216;51.090;-115.352;2023-11-25T01:44:51;87690.60;;;22.10
76394;BMP180;65216;51.090;-115.352;2023-11-25T01:47:21;87694.20;;;22.10
76394;BMP180;65216;51.090;-115.352;2023-11-25T01:49:49;87697.40;;;22.10
76394;BMP180;65216;51.090;-115.352;2023-11-25T01:52:17;87689.60;;;22.10
76394;BMP180;65216;51.090;-115.352;2023-11-25T01:54:44;87695.00;;;22.10
76394;BMP180;65216;51.090;-115.352;2023-11-25T01:57:12;87694.80;;;22.10
76394;BMP180;65216;51.090;-115.352;2023-11-25T01:59:42;87687.60;;;22.10
76394;BMP180;65216;51.090;-115.352;2023-11-25T02:02:11;87698.60;;;22.10
76394;BMP180;65216;51.090;-115.352;2023-11-25T02:04:42;87690.20;;;22.10
76394;BMP180;65216;51.090;-115.352;2023-11-25T02:07:11;87715.80;;;22.10
76394;BMP180;65216;51.090;-115.352;2023-11-25T02:09:38;87701.60;;;22.06
76394;BMP180;65216;51.090;-115.352;2023-11-25T02:12:05;87695.80;;;22.00
76394;BMP180;65216;51.090;-115.352;2023-11-25T02:14:36;87691.40;;;22.00
76394;BMP180;65216;51.090;-115.352;2023-11-25T02:17:05;87697.60;;;22.00
76394;BMP180;65216;51.090;-115.352;2023-11-25T02:19:31;87686.40;;;22.02
76394;BMP180;65216;51.090;-115.352;2023-11-25T02:22:00;87688.20;;;22.00
76394;BMP180;65216;51.090;-115.352;2023-11-25T02:24:29;87695.40;;;22.00
76394;BMP180;65216;51.090;-115.352;2023-11-25T02:27:01;87683.20;;;22.00
76394;BMP180;65216;51.090;-115.352;2023-11-25T02:29:30;87700.60;;;22.00
76394;BMP180;65216;51.090;-115.352;2023-11-25T02:32:05;87691.00;;;22.00
76394;BMP180;65216;51.090;-115.352;2023-11-25T02:34:33;87698.40;;;22.00
76394;BMP180;65216;51.090;-115.352;2023-11-25T02:37:00;87703.20;;;22.00
76394;BMP180;65216;51.090;-115.352;2023-11-25T02:39:28;87701.20;;;22.00
76394;BMP180;65216;51.090;-115.352;2023-11-25T02:41:54;87695.60;;;22.00
76394;BMP180;65216;51.090;-115.352;2023-11-25T02:44:21;87704.20;;;22.00
76394;BMP180;65216;51.090;-115.352;2023-11-25T02:46:49;87702.20;;;22.00
76394;BMP180;65216;51.090;-115.352;2023-11-25T02:49:17;87692.40;;;22.00
76394;BMP180;65216;51.090;-115.352;2023-11-25T02:51:50;87701.00;;;22.00
76394;BMP180;65216;51.090;-115.352;2023-11-25T02:56:47;87707.80;;;22.00
76394;BMP180;65216;51.090;-115.352;2023-11-25T02:59:19;87694.20;;;22.00
76394;BMP180;65216;51.090;-115.352;2023-11-25T03:01:46;87694.60;;;22.00
76394;BMP180;65216;51.090;-115.352;2023-11-25T03:04:19;87700.80;;;22.00
76394;BMP180;65216;51.090;-115.352;2023-11-25T03:06:51;87705.00;;;22.06
76394;BMP180;65216;51.090;-115.352;2023-11-25T03:09:18;87702.60;;;22.00
76394;BMP180;65216;51.090;-115.352;2023-11-25T03:11:46;87701.00;;;22.00
76394;BMP180;65216;51.090;-115.352;2023-11-25T03:14:13;87707.80;;;22.00
76394;BMP180;65216;51.090;-115.352;2023-11-25T03:16:41;87705.60;;;22.00
76394;BMP180;65216;51.090;-115.352;2023-11-25T03:19:08;87713.40;;;22.00
76394;BMP180;65216;51.090;-115.352;2023-11-25T03:21:37;87705.80;;;22.00
76394;BMP180;65216;51.090;-115.352;2023-11-25T03:24:04;87711.60;;;22.04
76394;BMP180;65216;51.090;-115.352;2023-11-25T03:26:34;87702.20;;;22.02
76394;BMP180;65216;51.090;-115.352;2023-11-25T03:29:00;87714.00;;;22.06
76394;BMP180;65216;51.090;-115.352;2023-11-25T03:31:27;87703.40;;;22.10
76394;BMP180;65216;51.090;-115.352;2023-11-25T03:33:54;87712.20;;;22.10
76394;BMP180;65216;51.090;-115.352;2023-11-25T03:36:21;87715.40;;;22.10
76394;BMP180;65216;51.090;-115.352;2023-11-25T03:38:48;87713.00;;;22.10
76394;BMP180;65216;51.090;-115.352;2023-11-25T03:41:16;87723.00;;;22.10
76394;BMP180;65216;51.090;-115.352;2023-11-25T03:43:44;87725.80;;;22.10
76394;BMP180;65216;51.090;-115.352;2023-11-25T03:46:11;87720.40;;;22.10
76394;BMP180;65216;51.090;-115.352;2023-11-25T03:48:39;87720.80;;;22.10
76394;BMP180;65216;51.090;-115.352;2023-11-25T03:51:09;87722.40;;;22.10
76394;BMP180;65216;51.090;-115.352;2023-11-25T03:53:40;87714.00;;;22.06
76394;BMP180;65216;51.090;-115.352;2023-11-25T03:56:07;87718.80;;;22.08
76394;BMP180;65216;51.090;-115.352;2023-11-25T03:58:35;87716.00;;;22.10
76394;BMP180;65216;51.090;-115.352;2023-11-25T04:01:02;87717.80;;;22.10
76394;BMP180;65216;51.090;-115.352;2023-11-25T04:03:29;87717.80;;;22.10
76394;BMP180;65216;51.090;-115.352;2023-11-25T04:05:56;87711.40;;;22.10
76394;BMP180;65216;51.090;-115.352;2023-11-25T04:08:23;87721.00;;;22.10
76394;BMP180;65216;51.090;-115.352;2023-11-25T04:10:52;87723.40;;;22.10
76394;BMP180;65216;51.090;-115.352;2023-11-25T04:13:19;87717.80;;;22.10
76394;BMP180;65216;51.090;-115.352;2023-11-25T04:15:46;87717.00;;;22.10
76394;BMP180;65216;51.090;-115.352;2023-11-25T04:18:12;87716.00;;;22.08
76394;BMP180;65216;51.090;-115.352;2023-11-25T04:20:39;87721.20;;;22.04
76394;BMP180;65216;51.090;-115.352;2023-11-25T04:23:06;87727.60;;;22.10
76394;BMP180;65216;51.090;-115.352;2023-11-25T04:25:35;87711.80;;;22.10
76394;BMP180;65216;51.090;-115.352;2023-11-25T04:28:02;87714.80;;;22.10
76394;BMP180;65216;51.090;-115.352;2023-11-25T04:30:30;87709.80;;;22.00
76394;BMP180;65216;51.090;-115.352;2023-11-25T04:32:58;87717.00;;;22.00
76394;BMP180;65216;51.090;-115.352;2023-11-25T04:35:25;87714.00;;;22.00
76394;BMP180;65216;51.090;-115.352;2023-11-25T04:37:52;87712.40;;;22.00
76394;BMP180;65216;51.090;-115.352;2023-11-25T04:40:19;87717.60;;;22.00
76394;BMP180;65216;51.090;-115.352;2023-11-25T04:42:46;87719.20;;;22.00
76394;BMP180;65216;51.090;-115.352;2023-11-25T04:45:13;87722.60;;;22.00
76394;BMP180;65216;51.090;-115.352;2023-11-25T04:47:48;87721.80;;;22.00
76394;BMP180;65216;51.090;-115.352;2023-11-25T04:50:17;87711.00;;;22.00
76394;BMP180;65216;51.090;-115.352;2023-11-25T04:52:44;87721.00;;;22.00
76394;BMP180;65216;51.090;-115.352;2023-11-25T04:55:12;87708.60;;;22.00
76394;BMP180;65216;51.090;-115.352;2023-11-25T04:57:40;87706.80;;;22.00
76394;BMP180;65216;51.090;-115.352;2023-11-25T05:00:09;87708.40;;;22.00
76394;BMP180;65216;51.090;-115.352;2023-11-25T05:02:38;87704.60;;;22.00
76394;BMP180;65216;51.090;-115.352;2023-11-25T05:05:07;87700.20;;;22.00
76394;BMP180;65216;51.090;-115.352;2023-11-25T05:07:35;87692.80;;;22.00
76394;BMP180;65216;51.090;-115.352;2023-11-25T05:10:03;87704.00;;;22.00
76394;BMP180;65216;51.090;-115.352;2023-11-25T05:12:39;87700.60;;;22.00
76394;BMP180;65216;51.090;-115.352;2023-11-25T05:15:09;87695.40;;;21.92
76394;BMP180;65216;51.090;-115.352;2023-11-25T05:17:37;87689.80;;;21.94
76394;BMP180;65216;51.090;-115.352;2023-11-25T05:20:08;87697.80;;;21.90
76394;BMP180;65216;51.090;-115.352;2023-11-25T05:22:43;87699.00;;;21.90
76394;BMP180;65216;51.090;-115.352;2023-11-25T05:25:10;87702.00;;;21.90
76394;BMP180;65216;51.090;-115.352;2023-11-25T05:27:39;87705.80;;;21.90
76394;BMP180;65216;51.090;-115.352;2023-11-25T05:30:07;87706.40;;;21.90
76394;BMP180;65216;51.090;-115.352;2023-11-25T05:32:40;87702.40;;;21.90
76394;BMP180;65216;51.090;-115.352;2023-11-25T05:35:12;87707.00;;;21.90
76394;BMP180;65216;51.090;-115.352;2023-11-25T05:37:39;87711.60;;;21.90
76394;BMP180;65216;51.090;-115.352;2023-11-25T05:40:09;87710.20;;;21.90
76394;BMP180;65216;51.090;-115.352;2023-11-25T05:42:38;87712.20;;;21.90
76394;BMP180;65216;51.090;-115.352;2023-11-25T05:45:09;87712.80;;;21.90
76394;BMP180;65216;51.090;-115.352;2023-11-25T05:47:36;87706.20;;;21.90
76394;BMP180;65216;51.090;-115.352;2023-11-25T05:50:05;87707.20;;;21.80
76394;BMP180;65216;51.090;-115.352;2023-11-25T05:52:33;87707.20;;;21.80
76394;BMP180;65216;51.090;-115.352;2023-11-25T05:55:02;87706.20;;;21.80
76394;BMP180;65216;51.090;-115.352;2023-11-25T05:57:28;87708.20;;;21.80
76394;BMP180;65216;51.090;-115.352;2023-11-25T05:59:56;87715.40;;;21.80
76394;BMP180;65216;51.090;-115.352;2023-11-25T06:02:22;87717.20;;;21.80
76394;BMP180;65216;51.090;-115.352;2023-11-25T06:04:49;87715.00;;;21.80
76394;BMP180;65216;51.090;-115.352;2023-11-25T06:07:19;87718.00;;;21.80
76394;BMP180;65216;51.090;-115.352;2023-11-25T06:09:46;87719.40;;;21.80
76394;BMP180;65216;51.090;-115.352;2023-11-25T06:12:12;87725.20;;;21.80
76394;BMP180;65216;51.090;-115.352;2023-11-25T06:14:40;87722.80;;;21.80
76394;BMP180;65216;51.090;-115.352;2023-11-25T06:17:07;87720.60;;;21.80
76394;BMP180;65216;51.090;-115.352;2023-11-25T06:19:34;87723.80;;;21.72
76394;BMP180;65216;51.090;-115.352;2023-11-25T06:22:00;87719.20;;;21.78
76394;BMP180;65216;51.090;-115.352;2023-11-25T06:24:31;87723.00;;;21.74
76394;BMP180;65216;51.090;-115.352;2023-11-25T06:26:57;87718.60;;;21.72
76394;BMP180;65216;51.090;-115.352;2023-11-25T06:29:24;87716.20;;;21.76
76394;BMP180;65216;51.090;-115.352;2023-11-25T06:31:51;87711.00;;;21.78
76394;BMP180;65216;51.090;-115.352;2023-11-25T06:34:18;87713.60;;;21.74
76394;BMP180;65216;51.090;-115.352;2023-11-25T06:36:45;87711.40;;;21.70
76394;BMP180;65216;51.090;-115.352;2023-11-25T06:39:13;87711.60;;;21.70
76394;BMP180;65216;51.090;-115.352;2023-11-25T06:41:46;87712.20;;;21.70
76394;BMP180;65216;51.090;-115.352;2023-11-25T06:44:21;87708.60;;;21.72
76394;BMP180;65216;51.090;-115.352;2023-11-25T06:46:48;87706.40;;;21.70
76394;BMP180;65216;51.090;-115.352;2023-11-25T06:49:15;87703.60;;;21.70
76394;BMP180;65216;51.090;-115.352;2023-11-25T06:51:42;87702.60;;;21.70
76394;BMP180;65216;51.090;-115.352;2023-11-25T06:54:10;87702.00;;;21.70
76394;BMP180;65216;51.090;-115.352;2023-11-25T06:56:37;87703.80;;;21.70
76394;BMP180;65216;51.090;-115.352;2023-11-25T06:59:07;87703.20;;;21.70
76394;BMP180;65216;51.090;-115.352;2023-11-25T07:01:34;87700.80;;;21.70
76394;BMP180;65216;51.090;-115.352;2023-11-25T07:04:03;87699.80;;;21.70
76394;BMP180;65216;51.090;-115.352;2023-11-25T07:06:33;87703.00;;;21.70
76394;BMP180;65216;51.090;-115.352;2023-11-25T07:09:00;87696.00;;;21.70
76394;BMP180;65216;51.090;-115.352;2023-11-25T07:11:28;87690.00;;;21.70
76394;BMP180;65216;51.090;-115.352;2023-11-25T07:13:57;87690.60;;;21.70
76394;BMP180;65216;51.090;-115.352;2023-11-25T07:16:30;87693.40;;;21.70
76394;BMP180;65216;51.090;-115.352;2023-11-25T07:18:59;87688.20;;;21.70
76394;BMP180;65216;51.090;-115.352;2023-11-25T07:21:27;87691.60;;;21.70
76394;BMP180;65216;51.090;-115.352;2023-11-25T07:23:56;87691.80;;;21.70
76394;BMP180;65216;51.090;-115.352;2023-11-25T07:26:27;87683.60;;;21.70
76394;BMP180;65216;51.090;-115.352;2023-11-25T07:28:57;87683.40;;;21.70
76394;BMP180;65216;51.090;-115.352;2023-11-25T07:31:24;87684.80;;;21.70
76394;BMP180;65216;51.090;-115.352;2023-11-25T07:33:52;87682.60;;;21.70
76394;BMP180;65216;51.090;-115.352;2023-11-25T07:36:20;87679.80;;;21.70
76394;BMP180;65216;51.090;-115.352;2023-11-25T07:38:47;87680.40;;;21.70
76394;BMP180;65216;51.090;-115.352;2023-11-25T07:41:17;87680.60;;;21.70
76394;BMP180;65216;51.090;-115.352;2023-11-25T07:43:44;87684.00;;;21.70
76394;BMP180;65216;51.090;-115.352;2023-11-25T07:46:14;87680.80;;;21.70
76394;BMP180;65216;51.090;-115.352;2023-11-25T07:48:41;87681.20;;;21.70
76394;BMP180;65216;51.090;-115.352;2023-11-25T07:51:10;87674.80;;;21.70
76394;BMP180;65216;51.090;-115.352;2023-11-25T07:53:41;87676.00;;;21.68
76394;BMP180;65216;51.090;-115.352;2023-11-25T07:56:08;87672.80;;;21.70
76394;BMP180;65216;51.090;-115.352;2023-11-25T07:58:39;87667.20;;;21.70
76394;BMP180;65216;51.090;-115.352;2023-11-25T08:01:06;87672.60;;;21.68
76394;BMP180;65216;51.090;-115.352;2023-11-25T08:03:33;87671.20;;;21.66
76394;BMP180;65216;51.090;-115.352;2023-11-25T08:06:00;87668.20;;;21.64
76394;BMP180;65216;51.090;-115.352;2023-11-25T08:08:29;87666.20;;;21.60
76394;BMP180;65216;51.090;-115.352;2023-11-25T08:10:56;87664.40;;;21.60
76394;BMP180;65216;51.090;-115.352;2023-11-25T08:13:24;87662.20;;;21.60
76394;BMP180;65216;51.090;-115.352;2023-11-25T08:15:53;87659.60;;;21.60
76394;BMP180;65216;51.090;-115.352;2023-11-25T08:18:24;87657.00;;;21.60
76394;BMP180;65216;51.090;-115.352;2023-11-25T08:20:51;87657.00;;;21.60
76394;BMP180;65216;51.090;-115.352;2023-11-25T08:23:18;87659.40;;;21.60
76394;BMP180;65216;51.090;-115.352;2023-11-25T08:25:46;87653.20;;;21.60
76394;BMP180;65216;51.090;-115.352;2023-11-25T08:28:15;87656.60;;;21.60
76394;BMP180;65216;51.090;-115.352;2023-11-25T08:30:42;87667.00;;;21.60
76394;BMP180;65216;51.090;-115.352;2023-11-25T08:33:09;87664.80;;;21.60
76394;BMP180;65216;51.090;-115.352;2023-11-25T08:35:38;87658.20;;;21.60
76394;BMP180;65216;51.090;-115.352;2023-11-25T08:38:05;87661.00;;;21.60
76394;BMP180;65216;51.090;-115.352;2023-11-25T08:40:32;87658.40;;;21.60
76394;BMP180;65216;51.090;-115.352;2023-11-25T08:43:01;87654.40;;;21.60
76394;BMP180;65216;51.090;-115.352;2023-11-25T08:45:37;87655.20;;;21.60
76394;BMP180;65216;51.090;-115.352;2023-11-25T08:48:05;87654.00;;;21.60
76394;BMP180;65216;51.090;-115.352;2023-11-25T08:50:37;87655.60;;;21.60
76394;BMP180;65216;51.090;-115.352;2023-11-25T08:53:04;87655.80;;;21.60
76394;BMP180;65216;51.090;-115.352;2023-11-25T08:55:33;87657.40;;;21.60
76394;BMP180;65216;51.090;-115.352;2023-11-25T08:58:00;87655.40;;;21.60
76394;BMP180;65216;51.090;-115.352;2023-11-25T09:00:26;87649.20;;;21.60
76394;BMP180;65216;51.090;-115.352;2023-11-25T09:02:55;87645.00;;;21.60
76394;BMP180;65216;51.090;-115.352;2023-11-25T09:05:24;87646.80;;;21.60
76394;BMP180;65216;51.090;-115.352;2023-11-25T09:07:55;87642.40;;;21.60
76394;BMP180;65216;51.090;-115.352;2023-11-25T09:10:22;87635.40;;;21.60
76394;BMP180;65216;51.090;-115.352;2023-11-25T09:12:51;87633.20;;;21.52
76394;BMP180;65216;51.090;-115.352;2023-11-25T09:15:19;87637.20;;;21.50
76394;BMP180;65216;51.090;-115.352;2023-11-25T09:17:46;87636.00;;;21.50
76394;BMP180;65216;51.090;-115.352;2023-11-25T09:20:16;87639.40;;;21.50
76394;BMP180;65216;51.090;-115.352;2023-11-25T09:22:43;87632.80;;;21.50
76394;BMP180;65216;51.090;-115.352;2023-11-25T09:25:11;87630.80;;;21.50
76394;BMP180;65216;51.090;-115.352;2023-11-25T09:27:43;87630.40;;;21.42
76394;BMP180;65216;51.090;-115.352;2023-11-25T09:30:14;87626.40;;;21.40
76394;BMP180;65216;51.090;-115.352;2023-11-25T09:32:42;87622.20;;;21.40
76394;BMP180;65216;51.090;-115.352;2023-11-25T09:35:12;87619.00;;;21.40
76394;BMP180;65216;51.090;-115.352;2023-11-25T09:37:43;87617.60;;;21.40
76394;BMP180;65216;51.090;-115.352;2023-11-25T09:40:13;87619.40;;;21.38
76394;BMP180;65216;51.090;-115.352;2023-11-25T09:42:46;87617.40;;;21.30
76394;BMP180;65216;51.090;-115.352;2023-11-25T09:45:14;87617.00;;;21.30
76394;BMP180;65216;51.090;-115.352;2023-11-25T09:47:43;87615.20;;;21.30
76394;BMP180;65216;51.090;-115.352;2023-11-25T09:50:11;87619.00;;;21.30
76394;BMP180;65216;51.090;-115.352;2023-11-25T09:52:52;87617.40;;;21.30
76394;BMP180;65216;51.090;-115.352;2023-11-25T09:55:22;87614.60;;;21.30
76394;BMP180;65216;51.090;-115.352;2023-11-25T09:57:57;87618.00;;;21.30
76394;BMP180;65216;51.090;-115.352;2023-11-25T10:00:28;87623.40;;;21.30
76394;BMP180;65216;51.090;-115.352;2023-11-25T10:02:57;87633.80;;;21.28
76394;BMP180;65216;51.090;-115.352;2023-11-25T10:05:26;87637.20;;;21.28
76394;BMP180;65216;51.090;-115.352;2023-11-25T10:07:53;87638.40;;;21.20
76394;BMP180;65216;51.090;-115.352;2023-11-25T10:10:21;87637.20;;;21.20
76394;BMP180;65216;51.090;-115.352;2023-11-25T10:12:53;87638.00;;;21.20
76394;BMP180;65216;51.090;-115.352;2023-11-25T10:15:20;87633.00;;;21.20
76394;BMP180;65216;51.090;-115.352;2023-11-25T10:17:50;87625.60;;;21.20
76394;BMP180;65216;51.090;-115.352;2023-11-25T10:20:21;87621.00;;;21.20
76394;BMP180;65216;51.090;-115.352;2023-11-25T10:22:54;87617.40;;;21.20
76394;BMP180;65216;51.090;-115.352;2023-11-25T10:25:27;87614.40;;;21.20
76394;BMP180;65216;51.090;-115.352;2023-11-25T10:27:55;87620.00;;;21.18
76394;BMP180;65216;51.090;-115.352;2023-11-25T10:30:22;87613.20;;;21.12
76394;BMP180;65216;51.090;-115.352;2023-11-25T10:32:52;87610.00;;;21.10
76394;BMP180;65216;51.090;-115.352;2023-11-25T10:35:22;87602.80;;;21.10
76394;BMP180;65216;51.090;-115.352;2023-11-25T10:37:52;87602.40;;;21.10
76394;BMP180;65216;51.090;-115.352;2023-11-25T10:40:19;87604.60;;;21.10
76394;BMP180;65216;51.090;-115.352;2023-11-25T10:42:48;87603.80;;;21.10
76394;BMP180;65216;51.090;-115.352;2023-11-25T10:45:18;87599.40;;;21.10
76394;BMP180;65216;51.090;-115.352;2023-11-25T10:47:50;87600.20;;;21.10
76394;BMP180;65216;51.090;-115.352;2023-11-25T10:50:17;87602.40;;;21.10
76394;BMP180;65216;51.090;-115.352;2023-11-25T10:52:44;87602.60;;;21.10
76394;BMP180;65216;51.090;-115.352;2023-11-25T10:55:13;87594.20;;;21.10
76394;BMP180;65216;51.090;-115.352;2023-11-25T10:57:44;87593.80;;;21.10
76394;BMP180;65216;51.090;-115.352;2023-11-25T11:00:13;87594.80;;;21.02
76394;BMP180;65216;51.090;-115.352;2023-11-25T11:02:54;87588.80;;;21.00
76394;BMP180;65216;51.090;-115.352;2023-11-25T11:08:21;87585.80;;;21.00
76394;BMP180;65216;51.090;-115.352;2023-11-25T11:10:57;87595.40;;;21.00
76394;BMP180;65216;51.090;-115.352;2023-11-25T11:13:42;87597.00;;;21.00
76394;BMP180;65216;51.090;-115.352;2023-11-25T11:16:21;87608.60;;;21.00
76394;BMP180;65216;51.090;-115.352;2023-11-25T11:18:55;87613.00;;;21.00
76394;BMP180;65216;51.090;-115.352;2023-11-25T11:21:26;87610.00;;;21.00
76394;BMP180;65216;51.090;-115.352;2023-11-25T11:23:55;87607.40;;;21.00
76394;BMP180;65216;51.090;-115.352;2023-11-25T11:26:35;87608.60;;;21.00
76394;BMP180;65216;51.090;-115.352;2023-11-25T11:29:32;87603.20;;;21.00
76394;BMP180;65216;51.090;-115.352;2023-11-25T11:32:06;87595.80;;;20.90
76394;BMP180;65216;51.090;-115.352;2023-11-25T11:34:36;87589.40;;;20.90
76394;BMP180;65216;51.090;-115.352;2023-11-25T11:37:03;87590.60;;;20.90
76394;BMP180;65216;51.090;-115.352;2023-11-25T11:45:13;87591.20;;;20.90
76394;BMP180;65216;51.090;-115.352;2023-11-25T11:48:00;87584.80;;;20.90
76394;BMP180;65216;51.090;-115.352;2023-11-25T11:50:32;87585.40;;;20.90
76394;BMP180;65216;51.090;-115.352;2023-11-25T11:55:55;87582.80;;;20.90
76394;BMP180;65216;51.090;-115.352;2023-11-25T11:58:27;87583.00;;;20.90
76394;BMP180;65216;51.090;-115.352;2023-11-25T12:03:38;87575.00;;;20.82
76394;BMP180;65216;51.090;-115.352;2023-11-25T12:06:08;87575.00;;;20.80
76394;BMP180;65216;51.090;-115.352;2023-11-25T12:08:36;87580.40;;;20.80
76394;BMP180;65216;51.090;-115.352;2023-11-25T12:11:04;87573.40;;;20.80
76394;BMP180;65216;51.090;-115.352;2023-11-25T12:13:35;87572.40;;;20.80
76394;BMP180;65216;51.090;-115.352;2023-11-25T12:16:04;87571.60;;;20.80
76394;BMP180;65216;51.090;-115.352;2023-11-25T12:18:35;87569.60;;;20.80
76394;BMP180;65216;51.090;-115.352;2023-11-25T12:21:03;87579.60;;;20.80
76394;BMP180;65216;51.090;-115.352;2023-11-25T12:23:37;87587.80;;;20.80
76394;BMP180;65216;51.090;-115.352;2023-11-25T12:26:05;87588.40;;;20.80
76394;BMP180;65216;51.090;-115.352;2023-11-25T12:28:41;87583.40;;;20.80
76394;BMP180;65216;51.090;-115.352;2023-11-25T12:31:11;87580.60;;;20.80
76394;BMP180;65216;51.090;-115.352;2023-11-25T12:33:37;87572.60;;;20.80
76394;BMP180;65216;51.090;-115.352;2023-11-25T12:36:06;87576.60;;;20.80
76394;BMP180;65216;51.090;-115.352;2023-11-25T12:38:33;87579.20;;;20.80
76394;BMP180;65216;51.090;-115.352;2023-11-25T12:41:08;87586.40;;;20.80
76394;BMP180;65216;51.090;-115.352;2023-11-25T12:44:04;87587.20;;;20.80
76394;BMP180;65216;51.090;-115.352;2023-11-25T12:46:37;87586.80;;;20.80
76394;BMP180;65216;51.090;-115.352;2023-11-25T12:49:22;87581.60;;;20.80
76394;BMP180;65216;51.090;-115.352;2023-11-25T12:51:51;87581.40;;;20.80
76394;BMP180;65216;51.090;-115.352;2023-11-25T12:54:22;87585.00;;;20.76
76394;BMP180;65216;51.090;-115.352;2023-11-25T12:56:54;87594.40;;;20.74
76394;BMP180;65216;51.090;-115.352;2023-11-25T12:59:26;87591.60;;;20.78
76394;BMP180;65216;51.090;-115.352;2023-11-25T13:02:07;87586.40;;;20.78
76394;BMP180;65216;51.090;-115.352;2023-11-25T13:04:42;87583.60;;;20.76
76394;BMP180;65216;51.090;-115.352;2023-11-25T13:07:10;87590.60;;;20.80
76394;BMP180;65216;51.090;-115.352;2023-11-25T13:09:38;87590.80;;;20.70
76394;BMP180;65216;51.090;-115.352;2023-11-25T13:12:07;87590.40;;;20.70
76394;BMP180;65216;51.090;-115.352;2023-11-25T13:14:34;87588.40;;;20.70
76394;BMP180;65216;51.090;-115.352;2023-11-25T13:17:01;87588.40;;;20.70
76394;BMP180;65216;51.090;-115.352;2023-11-25T13:19:29;87588.60;;;20.70
76394;BMP180;65216;51.090;-115.352;2023-11-25T13:21:58;87588.00;;;20.70
76394;BMP180;65216;51.090;-115.352;2023-11-25T13:24:25;87593.20;;;20.70
76394;BMP180;65216;51.090;-115.352;2023-11-25T13:26:52;87591.20;;;20.70
76394;BMP180;65216;51.090;-115.352;2023-11-25T13:29:18;87589.80;;;20.68
76394;BMP180;65216;51.090;-115.352;2023-11-25T13:31:47;87592.60;;;20.70
76394;BMP180;65216;51.090;-115.352;2023-11-25T13:34:14;87589.80;;;20.68
76394;BMP180;65216;51.090;-115.352;2023-11-25T13:36:41;87587.20;;;20.70
76394;BMP180;65216;51.090;-115.352;2023-11-25T13:39:09;87576.20;;;20.68
76394;BMP180;65216;51.090;-115.352;2023-11-25T13:41:40;87574.80;;;20.64
76394;BMP180;65216;51.090;-115.352;2023-11-25T13:44:07;87581.40;;;20.60
76394;BMP180;65216;51.090;-115.352;2023-11-25T13:46:34;87578.40;;;20.60
76394;BMP180;65216;51.090;-115.352;2023-11-25T13:49:00;87580.80;;;20.60
76394;BMP180;65216;51.090;-115.352;2023-11-25T13:51:27;87578.80;;;20.60
76394;BMP180;65216;51.090;-115.352;2023-11-25T13:53:54;87576.60;;;20.60
76394;BMP180;65216;51.090;-115.352;2023-11-25T13:56:24;87577.40;;;20.60
76394;BMP180;65216;51.090;-115.352;2023-11-25T13:58:51;87568.20;;;20.60